Time;durP1;ratioP1;P1;durP2;ratioP2;P2;SDS_P1;SDS_P2;PMS_P1;PMS_P2;Temp;Humidity;BMP_temperature;BMP_pressure;BME280_temperature;BME280_humidity;BME280_pressure;Samples;Min_cycle;Max_cycle;Signal;HPM_P1;HPM_P2
2021/08/06 06:26:19;;;;;;;6.72;1.33;;;;;;;;;;483778;51;935680;-41
2021/08/06 06:26:50;;;;;;;7.82;2.28;;;;;;;;;;482866;52;936547;-45
2021/08/06 06:27:21;;;;;;;5.55;1.90;;;;;;;;;;482600;52;936013;-42
2021/08/06 06:27:55;;;;;;;3.92;1.20;;;;;;;;;;481653;44;935984;-42
2021/08/06 06:28:26;;;;;;;4.62;1.80;;;;;;;;;;478799;52;936525;-44
2021/08/06 06:28:58;;;;;;;3.50;1.30;;;;;;;;;;479349;52;935948;-44
2021/08/06 06:29:29;;;;;;;4.55;1.42;;;;;;;;;;479348;52;936029;-42
2021/08/06 06:30:01;;;;;;;4.30;1.52;;;;;;;;;;480447;52;935846;-45
2021/08/06 06:30:32;;;;;;;2.85;1.10;;;;;;;;;;481987;44;935733;-48
2021/08/06 06:31:04;;;;;;;4.65;1.48;;;;;;;;;;481868;52;936153;-46
2021/08/06 06:31:35;;;;;;;3.12;1.27;;;;;;;;;;481792;44;935782;-47
2021/08/06 06:32:07;;;;;;;6.50;1.70;;;;;;;;;;481767;44;935881;-47
2021/08/06 06:32:39;;;;;;;8.02;2.00;;;;;;;;;;480554;44;935917;-48
2021/08/06 06:33:10;;;;;;;3.75;1.40;;;;;;;;;;480405;52;935921;-46
2021/08/06 06:33:42;;;;;;;4.05;1.30;;;;;;;;;;480398;52;935882;-44
2021/08/06 06:34:13;;;;;;;5.25;1.80;;;;;;;;;;480105;52;935864;-52
2021/08/06 06:34:45;;;;;;;4.12;1.60;;;;;;;;;;481533;52;936168;-47
2021/08/06 06:35:16;;;;;;;6.45;1.40;;;;;;;;;;482070;44;936185;-45
2021/08/06 06:35:47;;;;;;;4.70;1.50;;;;;;;;;;481498;44;936031;-51
2021/08/06 06:36:19;;;;;;;4.70;1.73;;;;;;;;;;481588;52;935992;-52
2021/08/06 06:36:50;;;;;;;6.43;1.70;;;;;;;;;;481528;52;935754;-53
2021/08/06 06:37:22;;;;;;;8.23;1.73;;;;;;;;;;481596;52;936063;-50
2021/08/06 06:37:53;;;;;;;5.28;1.62;;;;;;;;;;481592;52;935903;-45
2021/08/06 06:38:25;;;;;;;7.10;1.60;;;;;;;;;;481834;44;936175;-47
2021/08/06 06:38:56;;;;;;;4.37;1.73;;;;;;;;;;481601;52;935713;-45
2021/08/06 06:39:27;;;;;;;4.20;1.52;;;;;;;;;;481920;44;935822;-47
2021/08/06 06:39:59;;;;;;;3.50;1.52;;;;;;;;;;481698;52;936295;-45
2021/08/06 06:40:31;;;;;;;3.08;1.80;;;;;;;;;;481789;44;936437;-43
2021/08/06 06:41:03;;;;;;;5.87;1.60;;;;;;;;;;481619;52;935855;-43
2021/08/06 06:41:34;;;;;;;3.40;1.52;;;;;;;;;;481536;52;936543;-47
2021/08/06 06:42:06;;;;;;;5.18;1.90;;;;;;;;;;481830;44;935861;-46
2021/08/06 06:42:37;;;;;;;5.20;2.03;;;;;;;;;;481511;52;935824;-47
2021/08/06 06:43:09;;;;;;;6.30;1.67;;;;;;;;;;481825;44;935663;-54
2021/08/06 06:43:40;;;;;;;4.53;1.90;;;;;;;;;;481827;52;935603;-50
2021/08/06 06:44:11;;;;;;;6.05;2.00;;;;;;;;;;482006;44;935843;-47
2021/08/06 06:44:43;;;;;;;6.12;2.05;;;;;;;;;;481624;44;936162;-47
2021/08/06 06:45:14;;;;;;;5.85;2.00;;;;;;;;;;481465;52;935912;-47
2021/08/06 06:45:46;;;;;;;4.90;1.60;;;;;;;;;;481438;52;935862;-44
2021/08/06 06:46:17;;;;;;;5.75;1.90;;;;;;;;;;481585;52;935741;-50
2021/08/06 06:46:49;;;;;;;3.55;1.58;;;;;;;;;;481587;52;935729;-47
2021/08/06 06:47:20;;;;;;;2.90;1.58;;;;;;;;;;481675;44;935984;-48
2021/08/06 06:47:53;;;;;;;9.23;2.20;;;;;;;;;;481824;52;935698;-44
2021/08/06 06:48:25;;;;;;;5.62;2.05;;;;;;;;;;481845;52;935770;-50
2021/08/06 06:48:56;;;;;;;3.60;1.55;;;;;;;;;;481438;52;935747;-46
2021/08/06 06:49:30;;;;;;;13.07;2.10;;;;;;;;;;481242;52;935983;-73
2021/08/06 06:50:02;;;;;;;4.07;2.65;;;;;;;;;;481772;52;936308;-74
2021/08/06 06:50:35;;;;;;;7.93;2.50;;;;;;;;;;480628;44;936425;-70
2021/08/06 06:51:15;;;;;;;10.57;2.85;;;;;;;;;;480481;44;936076;-67
2021/08/06 06:53:02;;;;;;;7.85;2.65;;;;;;;;;;484235;44;936127;-69
2021/08/06 06:53:34;;;;;;;8.35;2.45;;;;;;;;;;483163;52;936105;-68
2021/08/06 06:54:05;;;;;;;5.30;2.42;;;;;;;;;;481998;44;935759;-67
2021/08/06 06:54:37;;;;;;;7.75;2.50;;;;;;;;;;481757;52;936378;-68
2021/08/06 06:55:09;;;;;;;8.85;2.75;;;;;;;;;;481815;52;936253;-67
2021/08/06 06:55:40;;;;;;;5.95;2.08;;;;;;;;;;481631;52;935876;-72
2021/08/06 06:56:15;;;;;;;6.70;1.90;;;;;;;;;;480798;52;935905;-68
2021/08/06 06:56:46;;;;;;;6.35;2.17;;;;;;;;;;480753;52;935962;-70
2021/08/06 06:57:18;;;;;;;6.62;2.37;;;;;;;;;;481074;52;935671;-66
2021/08/06 06:57:52;;;;;;;5.22;2.08;;;;;;;;;;481098;52;935967;-69
2021/08/06 06:58:23;;;;;;;7.22;2.40;;;;;;;;;;480610;44;935802;-69
2021/08/06 06:58:55;;;;;;;6.30;2.22;;;;;;;;;;479461;52;935916;-67
2021/08/06 06:59:26;;;;;;;5.20;2.37;;;;;;;;;;479968;44;936256;-67
2021/08/06 06:59:58;;;;;;;7.53;2.50;;;;;;;;;;479787;52;935789;-68
2021/08/06 07:00:31;;;;;;;5.97;2.30;;;;;;;;;;481814;52;936028;-69
2021/08/06 07:01:03;;;;;;;10.70;2.75;;;;;;;;;;481701;52;935907;-70
2021/08/06 07:01:34;;;;;;;7.28;2.60;;;;;;;;;;482062;52;935965;-70
2021/08/06 07:02:05;;;;;;;8.05;2.28;;;;;;;;;;482055;52;936252;-72
2021/08/06 07:02:37;;;;;;;8.23;2.53;;;;;;;;;;481798;52;935869;-69
2021/08/06 07:03:08;;;;;;;7.82;2.55;;;;;;;;;;483205;44;935765;-68
2021/08/06 07:03:40;;;;;;;5.82;2.58;;;;;;;;;;482953;52;936198;-64
2021/08/06 07:04:11;;;;;;;9.43;2.22;;;;;;;;;;482997;52;935739;-68
2021/08/06 07:04:42;;;;;;;4.68;2.33;;;;;;;;;;482971;52;935923;-64
2021/08/06 07:05:14;;;;;;;4.35;2.03;;;;;;;;;;483009;52;936214;-66
2021/08/06 07:05:45;;;;;;;4.97;2.20;;;;;;;;;;481587;52;935788;-65
2021/08/06 07:06:19;;;;;;;5.85;2.45;;;;;;;;;;482070;52;935973;-65
2021/08/06 07:06:50;;;;;;;7.68;2.37;;;;;;;;;;482010;44;936429;-66
2021/08/06 07:07:23;;;;;;;5.07;1.87;;;;;;;;;;481843;52;936581;-65
2021/08/06 07:07:54;;;;;;;5.85;2.20;;;;;;;;;;482873;52;935946;-65
2021/08/06 07:08:26;;;;;;;9.73;1.90;;;;;;;;;;482898;52;936127;-66
2021/08/06 07:08:57;;;;;;;6.70;2.20;;;;;;;;;;483068;44;935854;-66
2021/08/06 07:09:28;;;;;;;6.47;1.65;;;;;;;;;;482929;52;935993;-68
2021/08/06 07:10:00;;;;;;;6.35;2.10;;;;;;;;;;483021;52;936166;-67
2021/08/06 07:10:31;;;;;;;5.55;1.73;;;;;;;;;;483229;52;935845;-66
2021/08/06 07:11:04;;;;;;;6.25;1.95;;;;;;;;;;481811;52;935882;-66
2021/08/06 07:11:36;;;;;;;7.18;2.22;;;;;;;;;;481766;52;935880;-66
2021/08/06 07:12:07;;;;;;;6.93;1.75;;;;;;;;;;481748;52;936001;-64
2021/08/06 07:12:40;;;;;;;5.85;2.08;;;;;;;;;;481758;52;935790;-62
2021/08/06 07:13:11;;;;;;;6.05;1.92;;;;;;;;;;481668;52;936259;-64
2021/08/06 07:13:43;;;;;;;5.57;2.10;;;;;;;;;;481780;52;936235;-65
2021/08/06 07:14:14;;;;;;;6.87;2.30;;;;;;;;;;481786;52;935740;-67
2021/08/06 07:14:46;;;;;;;8.05;1.80;;;;;;;;;;482023;52;936100;-65
2021/08/06 07:15:17;;;;;;;5.85;2.00;;;;;;;;;;483187;52;935740;-64
2021/08/06 07:15:49;;;;;;;7.75;2.22;;;;;;;;;;483099;44;935932;-66
2021/08/06 07:16:20;;;;;;;4.57;1.90;;;;;;;;;;481656;52;935720;-65
2021/08/06 07:16:52;;;;;;;6.07;2.10;;;;;;;;;;480670;52;935824;-65
2021/08/06 07:17:23;;;;;;;4.90;1.85;;;;;;;;;;480675;52;935823;-65
2021/08/06 07:17:55;;;;;;;9.15;2.60;;;;;;;;;;480701;52;936314;-65
2021/08/06 07:18:26;;;;;;;7.90;2.30;;;;;;;;;;481670;52;936026;-64
2021/08/06 07:18:58;;;;;;;10.07;2.10;;;;;;;;;;483192;52;935671;-66
2021/08/06 07:19:29;;;;;;;4.80;2.20;;;;;;;;;;483155;52;935681;-66
2021/08/06 07:20:01;;;;;;;5.95;2.10;;;;;;;;;;483298;44;935856;-67
2021/08/06 07:20:32;;;;;;;8.25;2.10;;;;;;;;;;482726;52;935829;-66
2021/08/06 07:21:05;;;;;;;7.75;1.62;;;;;;;;;;483006;52;935771;-66
2021/08/06 07:21:36;;;;;;;6.30;2.30;;;;;;;;;;482972;52;936254;-69
2021/08/06 07:22:07;;;;;;;5.60;1.83;;;;;;;;;;482937;52;935890;-66
2021/08/06 07:22:39;;;;;;;8.00;1.98;;;;;;;;;;482816;52;936216;-66
2021/08/06 07:23:10;;;;;;;3.65;1.92;;;;;;;;;;483386;44;935725;-66
2021/08/06 07:23:42;;;;;;;5.55;2.17;;;;;;;;;;483135;52;936183;-66
2021/08/06 07:24:13;;;;;;;6.35;2.03;;;;;;;;;;482994;52;935769;-66
2021/08/06 07:24:45;;;;;;;5.10;1.98;;;;;;;;;;482821;52;935730;-67
2021/08/06 07:25:17;;;;;;;5.20;1.92;;;;;;;;;;482986;52;935744;-65
2021/08/06 07:25:49;;;;;;;4.53;2.00;;;;;;;;;;482912;52;935855;-66
2021/08/06 07:26:20;;;;;;;4.70;2.08;;;;;;;;;;483009;52;936279;-67
2021/08/06 07:26:52;;;;;;;5.12;1.95;;;;;;;;;;482972;52;935731;-67
2021/08/06 07:27:23;;;;;;;6.62;2.10;;;;;;;;;;482748;44;935677;-65
2021/08/06 07:27:55;;;;;;;6.12;2.05;;;;;;;;;;482239;44;936268;-66
2021/08/06 07:28:27;;;;;;;7.90;2.22;;;;;;;;;;482253;44;936086;-66
2021/08/06 07:28:58;;;;;;;9.68;2.05;;;;;;;;;;481792;52;935774;-67
2021/08/06 07:29:29;;;;;;;9.25;2.08;;;;;;;;;;481004;44;936140;-66
2021/08/06 07:30:01;;;;;;;8.38;2.60;;;;;;;;;;479409;52;936032;-67
2021/08/06 07:30:33;;;;;;;7.87;2.10;;;;;;;;;;480678;44;935984;-66
2021/08/06 07:31:04;;;;;;;5.60;1.92;;;;;;;;;;480418;52;935843;-66
2021/08/06 07:31:36;;;;;;;3.58;1.65;;;;;;;;;;479145;52;935879;-66
2021/08/06 07:32:07;;;;;;;5.78;2.00;;;;;;;;;;480128;44;935847;-69
2021/08/06 07:32:39;;;;;;;7.82;2.20;;;;;;;;;;480668;52;935990;-67
2021/08/06 07:33:10;;;;;;;7.28;1.85;;;;;;;;;;480618;52;935942;-66
2021/08/06 07:33:42;;;;;;;6.28;2.25;;;;;;;;;;481874;52;935958;-65
2021/08/06 07:34:13;;;;;;;6.62;2.12;;;;;;;;;;481838;44;935944;-67
2021/08/06 07:34:44;;;;;;;6.90;2.40;;;;;;;;;;481740;44;936254;-66
2021/08/06 07:35:18;;;;;;;6.60;1.95;;;;;;;;;;482647;52;936126;-69
2021/08/06 07:35:49;;;;;;;6.05;1.77;;;;;;;;;;481598;52;935680;-67
2021/08/06 07:36:21;;;;;;;7.40;2.42;;;;;;;;;;482164;52;935830;-65
2021/08/06 07:36:52;;;;;;;4.53;1.90;;;;;;;;;;480654;52;936068;-67
2021/08/06 07:37:23;;;;;;;8.80;2.55;;;;;;;;;;480611;44;935820;-67
2021/08/06 07:37:55;;;;;;;7.12;1.83;;;;;;;;;;480925;44;936236;-67
2021/08/06 07:38:26;;;;;;;9.70;2.60;;;;;;;;;;480718;52;936028;-67
2021/08/06 07:38:58;;;;;;;5.37;2.00;;;;;;;;;;481849;44;936229;-66
2021/08/06 07:39:29;;;;;;;5.65;2.37;;;;;;;;;;480534;52;935780;-67
2021/08/06 07:40:01;;;;;;;8.45;2.17;;;;;;;;;;479642;52;936220;-66
2021/08/06 07:40:32;;;;;;;6.40;2.33;;;;;;;;;;479808;52;936203;-67
2021/08/06 07:41:04;;;;;;;6.80;2.20;;;;;;;;;;479009;44;935662;-67
2021/08/06 07:41:35;;;;;;;8.10;2.22;;;;;;;;;;479574;52;935800;-66
2021/08/06 07:42:07;;;;;;;5.45;1.85;;;;;;;;;;480880;44;936169;-67
2021/08/06 07:42:39;;;;;;;6.15;1.87;;;;;;;;;;479559;52;936050;-68
2021/08/06 07:43:10;;;;;;;5.82;2.12;;;;;;;;;;480690;52;935925;-67
2021/08/06 07:43:41;;;;;;;6.10;2.15;;;;;;;;;;480558;52;935776;-66
2021/08/06 07:44:13;;;;;;;8.18;2.97;;;;;;;;;;479673;52;935918;-67
2021/08/06 07:44:45;;;;;;;6.75;2.10;;;;;;;;;;480742;52;936146;-66
2021/08/06 07:45:16;;;;;;;7.10;2.47;;;;;;;;;;480953;52;935694;-67
2021/08/06 07:45:48;;;;;;;6.75;1.92;;;;;;;;;;480455;52;935784;-67
2021/08/06 07:46:19;;;;;;;7.75;2.25;;;;;;;;;;481877;52;935978;-69
2021/08/06 07:46:50;;;;;;;8.40;2.53;;;;;;;;;;481898;52;936052;-68
2021/08/06 07:47:22;;;;;;;4.82;2.10;;;;;;;;;;481810;52;936201;-66
2021/08/06 07:47:53;;;;;;;12.18;2.53;;;;;;;;;;480617;52;935876;-66
2021/08/06 07:48:25;;;;;;;9.50;2.30;;;;;;;;;;480830;44;935793;-66
2021/08/06 07:48:56;;;;;;;8.73;2.35;;;;;;;;;;480881;44;935713;-67
2021/08/06 07:49:28;;;;;;;7.12;2.20;;;;;;;;;;480948;52;935649;-66
2021/08/06 07:49:59;;;;;;;11.60;2.42;;;;;;;;;;481901;52;935855;-67
2021/08/06 07:50:31;;;;;;;5.53;2.25;;;;;;;;;;480499;52;935798;-67
2021/08/06 07:51:02;;;;;;;10.63;2.90;;;;;;;;;;480668;52;935961;-66
2021/08/06 07:51:34;;;;;;;5.43;2.30;;;;;;;;;;480871;44;935810;-68
2021/08/06 07:52:05;;;;;;;6.78;2.60;;;;;;;;;;480720;44;935960;-67
2021/08/06 07:52:37;;;;;;;8.50;2.20;;;;;;;;;;480332;52;935818;-66
2021/08/06 07:53:08;;;;;;;7.10;2.35;;;;;;;;;;480746;52;935691;-66
2021/08/06 07:53:40;;;;;;;5.25;1.98;;;;;;;;;;480910;52;936182;-67
2021/08/06 07:54:11;;;;;;;4.15;2.05;;;;;;;;;;480876;44;935779;-64
2021/08/06 07:54:43;;;;;;;8.85;2.90;;;;;;;;;;481808;52;936217;-66
2021/08/06 07:55:15;;;;;;;8.55;2.17;;;;;;;;;;481788;44;936334;-66
2021/08/06 07:55:47;;;;;;;5.60;2.00;;;;;;;;;;481617;52;935767;-67
2021/08/06 07:56:18;;;;;;;5.60;2.20;;;;;;;;;;481636;44;935910;-65
2021/08/06 07:56:50;;;;;;;3.87;1.90;;;;;;;;;;481953;52;935673;-65
2021/08/06 07:57:21;;;;;;;7.85;2.42;;;;;;;;;;482018;44;936226;-66
2021/08/06 07:57:53;;;;;;;7.50;2.78;;;;;;;;;;482101;52;936629;-67
2021/08/06 07:58:24;;;;;;;6.68;2.37;;;;;;;;;;482077;44;936058;-66
2021/08/06 07:58:55;;;;;;;6.57;2.20;;;;;;;;;;481769;52;935798;-67
2021/08/06 07:59:27;;;;;;;7.75;2.65;;;;;;;;;;481595;44;935884;-66
2021/08/06 07:59:59;;;;;;;10.02;2.62;;;;;;;;;;481837;44;935812;-67
2021/08/06 08:00:30;;;;;;;8.40;2.75;;;;;;;;;;481645;52;936279;-68
2021/08/06 08:01:04;;;;;;;6.32;2.22;;;;;;;;;;481879;52;935938;-66
2021/08/06 08:01:36;;;;;;;5.60;2.00;;;;;;;;;;481701;52;935748;-66
2021/08/06 08:02:08;;;;;;;6.87;2.03;;;;;;;;;;482040;52;935676;-66
2021/08/06 08:02:39;;;;;;;6.70;2.42;;;;;;;;;;482027;52;935935;-67
2021/08/06 08:03:11;;;;;;;9.77;2.62;;;;;;;;;;481892;52;935765;-66
2021/08/06 08:03:42;;;;;;;6.57;2.70;;;;;;;;;;481896;52;935738;-66
2021/08/06 08:04:13;;;;;;;6.65;2.22;;;;;;;;;;480342;52;936164;-68
2021/08/06 08:04:45;;;;;;;6.78;1.98;;;;;;;;;;480180;44;935786;-67
2021/08/06 08:05:20;;;;;;;7.60;2.08;;;;;;;;;;477828;52;935817;-67
2021/08/06 08:05:51;;;;;;;4.90;2.03;;;;;;;;;;477183;44;935755;-67
2021/08/06 08:06:23;;;;;;;6.45;2.08;;;;;;;;;;478116;44;935901;-68
2021/08/06 08:06:55;;;;;;;5.20;1.60;;;;;;;;;;478305;52;935928;-66
2021/08/06 08:07:26;;;;;;;5.60;1.70;;;;;;;;;;479926;52;936249;-65
2021/08/06 08:07:58;;;;;;;4.65;1.48;;;;;;;;;;480014;52;935953;-65
2021/08/06 08:08:31;;;;;;;6.30;1.90;;;;;;;;;;479920;52;935849;-65
2021/08/06 08:09:02;;;;;;;5.75;1.77;;;;;;;;;;478951;52;935900;-66
2021/08/06 08:09:33;;;;;;;7.28;2.40;;;;;;;;;;479952;52;936190;-64
2021/08/06 08:10:06;;;;;;;6.30;1.92;;;;;;;;;;479970;52;936674;-65
2021/08/06 08:10:37;;;;;;;9.43;2.55;;;;;;;;;;479823;52;935913;-66
2021/08/06 08:11:09;;;;;;;8.25;1.70;;;;;;;;;;481443;52;936604;-67
2021/08/06 08:11:40;;;;;;;10.43;2.20;;;;;;;;;;481158;52;935971;-69
2021/08/06 08:12:15;;;;;;;7.30;1.30;;;;;;;;;;481057;52;936318;-67
2021/08/06 08:12:47;;;;;;;6.20;1.85;;;;;;;;;;480978;52;936111;-67
2021/08/06 08:13:19;;;;;;;8.75;1.80;;;;;;;;;;481114;52;936210;-69
2021/08/06 08:13:50;;;;;;;7.00;2.05;;;;;;;;;;481106;52;936281;-70
2021/08/06 08:14:21;;;;;;;6.87;1.90;;;;;;;;;;480951;52;935769;-69
2021/08/06 08:14:56;;;;;;;8.43;1.90;;;;;;;;;;479936;52;935806;-70
2021/08/06 08:15:27;;;;;;;5.82;1.70;;;;;;;;;;480519;44;935824;-66
2021/08/06 08:15:59;;;;;;;6.90;1.90;;;;;;;;;;478456;44;935926;-67
2021/08/06 08:16:31;;;;;;;6.62;1.70;;;;;;;;;;479523;52;935964;-67
2021/08/06 08:17:03;;;;;;;6.03;1.65;;;;;;;;;;479777;52;936309;-68
2021/08/06 08:17:34;;;;;;;6.80;2.10;;;;;;;;;;480171;44;935769;-68
2021/08/06 08:18:07;;;;;;;5.72;1.87;;;;;;;;;;478978;52;935780;-68
2021/08/06 08:18:38;;;;;;;8.80;1.80;;;;;;;;;;478778;52;936270;-69
2021/08/06 08:19:09;;;;;;;7.20;2.05;;;;;;;;;;478935;52;935831;-69
2021/08/06 08:19:41;;;;;;;5.93;1.62;;;;;;;;;;479205;52;935744;-70
2021/08/06 08:20:13;;;;;;;6.07;2.12;;;;;;;;;;479008;52;936342;-69
2021/08/06 08:20:47;;;;;;;5.28;1.92;;;;;;;;;;480038;44;936701;-67
2021/08/06 08:21:18;;;;;;;5.15;1.42;;;;;;;;;;479732;52;935958;-68
2021/08/06 08:21:50;;;;;;;8.63;1.90;;;;;;;;;;479770;52;935967;-70
2021/08/06 08:22:21;;;;;;;7.78;1.98;;;;;;;;;;480802;44;936200;-70
2021/08/06 08:22:53;;;;;;;5.45;2.35;;;;;;;;;;479848;52;936457;-69
2021/08/06 08:23:24;;;;;;;9.27;2.17;;;;;;;;;;479824;44;935749;-69
2021/08/06 08:23:56;;;;;;;8.80;2.30;;;;;;;;;;480078;52;935824;-69
2021/08/06 08:24:27;;;;;;;5.35;2.20;;;;;;;;;;479215;44;935884;-69
2021/08/06 08:24:59;;;;;;;12.23;2.55;;;;;;;;;;479988;44;935849;-66
2021/08/06 08:25:31;;;;;;;4.60;1.87;;;;;;;;;;479762;52;935897;-69
2021/08/06 08:26:02;;;;;;;6.05;1.80;;;;;;;;;;478982;44;935862;-68
2021/08/06 08:26:34;;;;;;;5.80;1.80;;;;;;;;;;479928;52;935972;-69
2021/08/06 08:27:06;;;;;;;7.43;2.10;;;;;;;;;;480049;52;935729;-69
2021/08/06 08:27:38;;;;;;;7.45;2.35;;;;;;;;;;479898;52;935808;-69
2021/08/06 08:28:09;;;;;;;9.77;2.03;;;;;;;;;;481366;52;935705;-68
2021/08/06 08:28:41;;;;;;;5.97;1.95;;;;;;;;;;481331;52;935819;-68
2021/08/06 08:29:12;;;;;;;2.72;1.40;;;;;;;;;;480995;52;935800;-67
2021/08/06 08:29:46;;;;;;;6.47;1.77;;;;;;;;;;479799;52;936545;-66
2021/08/06 08:30:18;;;;;;;3.85;1.42;;;;;;;;;;479886;52;935836;-68
2021/08/06 08:30:50;;;;;;;8.02;2.70;;;;;;;;;;478599;52;935901;-68
2021/08/06 08:31:21;;;;;;;6.93;1.80;;;;;;;;;;478932;44;935969;-68
2021/08/06 08:31:52;;;;;;;9.85;2.10;;;;;;;;;;479925;52;935902;-68
2021/08/06 08:32:24;;;;;;;7.15;1.70;;;;;;;;;;480098;44;935696;-68
2021/08/06 08:32:56;;;;;;;7.65;2.00;;;;;;;;;;481380;52;935824;-68
2021/08/06 08:33:27;;;;;;;10.48;2.33;;;;;;;;;;481143;52;935762;-67
2021/08/06 08:33:59;;;;;;;8.05;1.80;;;;;;;;;;481198;52;935774;-68
2021/08/06 08:34:30;;;;;;;13.57;1.95;;;;;;;;;;481135;52;936132;-66
2021/08/06 08:35:02;;;;;;;8.68;2.40;;;;;;;;;;480312;44;935701;-68
2021/08/06 08:35:34;;;;;;;7.60;2.35;;;;;;;;;;479938;52;935960;-68
2021/08/06 08:36:06;;;;;;;11.27;1.95;;;;;;;;;;478951;52;935815;-66
2021/08/06 08:36:37;;;;;;;7.60;2.40;;;;;;;;;;478797;52;935738;-66
2021/08/06 08:37:09;;;;;;;11.23;2.25;;;;;;;;;;479216;52;935993;-65
2021/08/06 08:37:40;;;;;;;5.57;1.87;;;;;;;;;;479106;44;935939;-67
2021/08/06 08:38:12;;;;;;;8.93;2.00;;;;;;;;;;479863;52;935896;-67
2021/08/06 08:38:43;;;;;;;5.53;2.10;;;;;;;;;;478913;52;935813;-66
2021/08/06 08:39:14;;;;;;;5.57;1.65;;;;;;;;;;480219;44;936015;-67
2021/08/06 08:39:46;;;;;;;7.57;1.90;;;;;;;;;;478856;52;935889;-67
2021/08/06 08:40:17;;;;;;;6.15;2.00;;;;;;;;;;478872;52;936243;-68
2021/08/06 08:40:49;;;;;;;5.15;1.60;;;;;;;;;;478869;52;935900;-67
2021/08/06 08:41:20;;;;;;;7.03;1.85;;;;;;;;;;480398;44;936170;-68
2021/08/06 08:41:52;;;;;;;9.02;2.22;;;;;;;;;;479932;52;935908;-67
2021/08/06 08:42:24;;;;;;;13.20;2.00;;;;;;;;;;479882;52;936589;-68
2021/08/06 08:42:55;;;;;;;5.03;1.52;;;;;;;;;;481043;52;936388;-68
2021/08/06 08:43:27;;;;;;;5.47;2.20;;;;;;;;;;481103;52;935839;-68
2021/08/06 08:43:58;;;;;;;3.47;1.40;;;;;;;;;;480958;44;936208;-66
2021/08/06 08:44:37;;;;;;;5.97;1.80;;;;;;;;;;481097;52;935843;-68
2021/08/06 08:45:09;;;;;;;4.85;1.65;;;;;;;;;;481381;44;935916;-67
2021/08/06 08:45:41;;;;;;;3.70;1.42;;;;;;;;;;481150;52;935736;-70
2021/08/06 08:46:12;;;;;;;5.25;1.60;;;;;;;;;;481083;52;935739;-67
2021/08/06 08:46:46;;;;;;;4.87;1.90;;;;;;;;;;480142;44;935988;-67
2021/08/06 08:47:23;;;;;;;5.05;1.60;;;;;;;;;;480008;44;935854;-67
2021/08/06 08:47:55;;;;;;;3.40;1.45;;;;;;;;;;478948;52;935780;-67
2021/08/06 08:48:27;;;;;;;6.80;1.73;;;;;;;;;;479257;44;936360;-68
2021/08/06 08:48:59;;;;;;;5.97;1.70;;;;;;;;;;479928;52;935812;-67
2021/08/06 08:49:33;;;;;;;4.28;1.25;;;;;;;;;;479952;52;935775;-68
2021/08/06 08:50:05;;;;;;;3.37;1.48;;;;;;;;;;479461;44;935629;-68
2021/08/06 08:50:39;;;;;;;7.28;1.80;;;;;;;;;;479737;52;936407;-67
2021/08/06 08:51:12;;;;;;;6.45;2.12;;;;;;;;;;477647;52;935728;-67
2021/08/06 08:51:48;;;;;;;6.00;2.00;;;;;;;;;;477848;52;935914;-67
2021/08/06 08:52:21;;;;;;;6.82;1.90;;;;;;;;;;478826;52;936008;-69
2021/08/06 08:52:53;;;;;;;5.07;1.45;;;;;;;;;;479305;44;935915;-69
2021/08/06 08:53:24;;;;;;;5.37;1.50;;;;;;;;;;481012;52;935774;-68
2021/08/06 08:53:57;;;;;;;5.18;1.17;;;;;;;;;;481185;52;935673;-68
2021/08/06 08:54:29;;;;;;;5.22;1.58;;;;;;;;;;481285;52;936092;-69
2021/08/06 08:55:01;;;;;;;5.12;1.60;;;;;;;;;;478893;52;935905;-68
2021/08/06 08:55:32;;;;;;;5.70;1.60;;;;;;;;;;478901;52;936229;-68
2021/08/06 08:56:04;;;;;;;4.78;1.50;;;;;;;;;;478869;52;935830;-68
2021/08/06 08:56:35;;;;;;;6.45;1.65;;;;;;;;;;478825;44;936356;-66
2021/08/06 08:57:07;;;;;;;4.47;1.62;;;;;;;;;;481217;52;935895;-67
2021/08/06 08:57:38;;;;;;;5.47;1.85;;;;;;;;;;481171;52;935789;-67
2021/08/06 08:58:10;;;;;;;4.87;1.80;;;;;;;;;;481192;52;935757;-71
2021/08/06 08:58:42;;;;;;;5.65;1.87;;;;;;;;;;481464;44;936518;-68
2021/08/06 08:59:13;;;;;;;9.35;2.20;;;;;;;;;;481146;52;935985;-68
2021/08/06 08:59:44;;;;;;;6.80;2.00;;;;;;;;;;481089;52;935930;-67
2021/08/06 09:00:16;;;;;;;6.30;1.95;;;;;;;;;;480968;44;935828;-66
2021/08/06 09:00:48;;;;;;;8.43;2.10;;;;;;;;;;480841;52;936248;-65
2021/08/06 09:01:19;;;;;;;6.30;1.87;;;;;;;;;;481108;52;935874;-66
2021/08/06 09:01:51;;;;;;;4.28;1.83;;;;;;;;;;481052;52;935869;-65
2021/08/06 09:02:24;;;;;;;6.57;2.35;;;;;;;;;;481200;52;935724;-64
2021/08/06 09:02:55;;;;;;;5.97;1.62;;;;;;;;;;481415;44;936034;-66
2021/08/06 09:03:42;;;;;;;4.90;2.00;;;;;;;;;;481200;44;936334;-66
2021/08/06 09:04:18;;;;;;;6.22;1.98;;;;;;;;;;481228;44;935760;-65
2021/08/06 09:05:13;;;;;;;5.85;1.70;;;;;;;;;;480995;52;935950;-66
2021/08/06 09:05:50;;;;;;;8.68;1.80;;;;;;;;;;479913;52;936257;-65
2021/08/06 09:06:42;;;;;;;5.03;1.98;;;;;;;;;;479937;52;936243;-66
2021/08/06 09:07:30;;;;;;;4.45;2.22;;;;;;;;;;479044;52;935793;-67
2021/08/06 09:08:17;;;;;;;7.32;1.92;;;;;;;;;;479860;52;935913;-65
2021/08/06 09:08:49;;;;;;;10.80;2.28;;;;;;;;;;478872;52;935884;-66
2021/08/06 09:09:22;;;;;;;4.60;1.50;;;;;;;;;;479033;44;935877;-64
2021/08/06 09:10:18;;;;;;;8.45;2.00;;;;;;;;;;478866;52;935730;-65
2021/08/06 09:10:49;;;;;;;5.37;2.00;;;;;;;;;;478775;52;935853;-66
2021/08/06 09:11:39;;;;;;;6.82;1.60;;;;;;;;;;478929;52;936158;-66
2021/08/06 09:12:12;;;;;;;7.20;1.80;;;;;;;;;;478870;52;936291;-66
2021/08/06 09:12:55;;;;;;;4.87;1.92;;;;;;;;;;477434;52;936233;-66
2021/08/06 09:13:27;;;;;;;5.37;1.77;;;;;;;;;;478797;52;935928;-66
2021/08/06 09:14:18;;;;;;;4.28;1.50;;;;;;;;;;479042;44;935911;-65
2021/08/06 09:14:50;;;;;;;5.45;1.95;;;;;;;;;;480832;52;935768;-66
2021/08/06 09:15:51;;;;;;;4.22;1.48;;;;;;;;;;480704;44;935936;-66
2021/08/06 09:16:23;;;;;;;4.32;1.42;;;;;;;;;;479869;52;936125;-65
2021/08/06 09:16:58;;;;;;;6.85;1.37;;;;;;;;;;479844;52;936313;-66
2021/08/06 09:17:36;;;;;;;5.00;1.83;;;;;;;;;;478779;52;935916;-65
2021/08/06 09:18:25;;;;;;;3.30;1.50;;;;;;;;;;479275;52;936010;-66
2021/08/06 09:18:57;;;;;;;3.50;1.40;;;;;;;;;;479775;44;936333;-64
2021/08/06 09:19:34;;;;;;;6.37;1.73;;;;;;;;;;480710;52;935817;-66
2021/08/06 09:20:09;;;;;;;7.18;1.60;;;;;;;;;;480180;52;935773;-66
2021/08/06 09:20:40;;;;;;;3.58;1.52;;;;;;;;;;480082;52;935810;-66
2021/08/06 09:21:14;;;;;;;5.10;1.35;;;;;;;;;;479924;52;935926;-64
2021/08/06 09:21:46;;;;;;;2.67;1.05;;;;;;;;;;480115;52;935888;-65
2021/08/06 09:22:24;;;;;;;3.30;1.60;;;;;;;;;;481055;52;936075;-65
2021/08/06 09:22:55;;;;;;;7.03;1.92;;;;;;;;;;481046;52;936778;-65
2021/08/06 09:23:43;;;;;;;5.72;2.05;;;;;;;;;;481082;52;935792;-65
2021/08/06 09:24:15;;;;;;;4.07;1.75;;;;;;;;;;479870;52;935867;-66
2021/08/06 09:25:07;;;;;;;4.82;1.80;;;;;;;;;;480034;52;935735;-64
2021/08/06 09:25:38;;;;;;;7.68;1.58;;;;;;;;;;479916;44;936373;-65
2021/08/06 09:26:28;;;;;;;7.95;2.03;;;;;;;;;;480929;44;936316;-65
2021/08/06 09:27:00;;;;;;;4.07;1.98;;;;;;;;;;481220;52;935761;-66
2021/08/06 09:27:33;;;;;;;5.12;1.87;;;;;;;;;;479988;52;935783;-65
2021/08/06 09:28:07;;;;;;;7.70;1.70;;;;;;;;;;478841;52;935884;-66
2021/08/06 09:29:14;;;;;;;6.05;1.65;;;;;;;;;;479075;44;935851;-67
2021/08/06 09:29:45;;;;;;;5.25;1.55;;;;;;;;;;480184;52;935796;-69
2021/08/06 09:30:23;;;;;;;5.30;1.60;;;;;;;;;;481073;52;935788;-65
2021/08/06 09:30:55;;;;;;;5.90;1.95;;;;;;;;;;481100;44;935835;-68
2021/08/06 09:31:26;;;;;;;4.37;1.42;;;;;;;;;;481059;52;936093;-67
2021/08/06 09:31:59;;;;;;;6.60;1.45;;;;;;;;;;481008;52;935917;-67
2021/08/06 09:32:51;;;;;;;11.30;1.92;;;;;;;;;;481177;44;936201;-68
2021/08/06 09:33:31;;;;;;;;;;;;;;;;;;569206;52;20232;-70
2021/08/06 09:34:24;;;;;;;3.60;1.40;;;;;;;;;;479920;52;935829;-69
2021/08/06 09:34:55;;;;;;;3.97;1.50;;;;;;;;;;479901;52;936139;-67
2021/08/06 09:35:30;;;;;;;7.93;1.65;;;;;;;;;;481128;52;935754;-66
2021/08/06 09:36:15;;;;;;;9.68;2.50;;;;;;;;;;481449;44;935841;-66
2021/08/06 09:37:01;;;;;;;4.00;1.85;;;;;;;;;;480164;44;935937;-67
2021/08/06 09:37:36;;;;;;;5.12;1.80;;;;;;;;;;480130;52;935694;-69
2021/08/06 09:38:18;;;;;;;21.10;2.17;;;;;;;;;;479982;52;936335;-69
2021/08/06 09:38:50;;;;;;;7.68;1.60;;;;;;;;;;480946;52;935888;-68
2021/08/06 09:39:22;;;;;;;7.97;2.28;;;;;;;;;;481040;52;935833;-68
2021/08/06 09:39:55;;;;;;;13.00;1.90;;;;;;;;;;481138;44;936227;-67
2021/08/06 09:40:32;;;;;;;19.40;2.00;;;;;;;;;;480991;52;936048;-66
2021/08/06 09:41:03;;;;;;;10.13;1.67;;;;;;;;;;479848;52;936076;-67
2021/08/06 09:41:40;;;;;;;21.65;2.45;;;;;;;;;;479976;52;935817;-69
2021/08/06 09:42:14;;;;;;;14.68;2.12;;;;;;;;;;480324;44;935955;-68
2021/08/06 09:42:54;;;;;;;8.80;1.85;;;;;;;;;;480424;44;935810;-66
2021/08/06 09:43:26;;;;;;;13.10;2.20;;;;;;;;;;481076;52;935788;-69
2021/08/06 09:44:17;;;;;;;13.27;1.83;;;;;;;;;;481207;44;936129;-68
2021/08/06 09:45:09;;;;;;;9.15;1.55;;;;;;;;;;533231;44;935879;-68
2021/08/06 09:45:41;;;;;;;10.07;1.83;;;;;;;;;;479980;44;936282;-68
2021/08/06 09:46:28;;;;;;;10.45;1.58;;;;;;;;;;480160;52;935689;-67